createdAt,value
2022-11-03T00:01:48.002Z,12.10
2022-11-03T00:04:17.312Z,12.10
2022-11-03T00:06:45.512Z,12.10
2022-11-03T00:09:14.097Z,12.10
2022-11-03T00:41:15.985Z,12.20
2022-11-03T00:43:43.192Z,12.30
2022-11-03T00:46:10.451Z,12.20
2022-11-03T00:48:38.054Z,12.20
2022-11-03T00:51:16.594Z,12.30
2022-11-03T00:53:45.620Z,12.30
2022-11-03T00:56:23.677Z,12.30
2022-11-03T00:58:51.252Z,12.30
2022-11-03T01:01:23.816Z,12.30
2022-11-03T01:04:11.602Z,12.30
2022-11-03T01:06:52.618Z,12.30
2022-11-03T01:09:26.423Z,12.30
2022-11-03T01:11:59.885Z,12.30
2022-11-03T01:14:34.337Z,12.30
2022-11-03T01:17:01.728Z,12.30
2022-11-03T01:19:28.463Z,12.30
2022-11-03T01:21:55.198Z,12.30
2022-11-03T01:24:22.833Z,12.40
2022-11-03T01:26:50.022Z,12.40
2022-11-03T01:29:17.053Z,12.40
2022-11-03T01:31:43.836Z,12.40
2022-11-03T01:34:19.057Z,12.40
2022-11-03T01:36:46.483Z,12.40
2022-11-03T01:39:18.885Z,12.30
2022-11-03T01:41:48.906Z,12.30
2022-11-03T01:44:15.567Z,12.30
2022-11-03T01:46:54.822Z,12.30
2022-11-03T01:49:25.272Z,12.30
2022-11-03T01:51:58.105Z,12.30
2022-11-03T01:54:29.630Z,12.30
2022-11-03T01:56:58.815Z,12.30
2022-11-03T01:59:26.017Z,12.30
2022-11-03T02:01:52.937Z,12.30
2022-11-03T02:04:31.625Z,12.30
2022-11-03T02:07:12.159Z,12.30
2022-11-03T02:09:39.170Z,12.40
2022-11-03T02:12:07.614Z,12.30
2022-11-03T02:14:43.973Z,12.40
2022-11-03T02:17:13.258Z,12.40
2022-11-03T02:19:47.233Z,12.40
2022-11-03T02:22:22.616Z,12.40
2022-11-03T02:24:54.276Z,12.40
2022-11-03T02:27:21.919Z,12.40
2022-11-03T02:29:49.369Z,12.40
2022-11-03T02:32:26.841Z,12.40
2022-11-03T02:35:05.869Z,12.40
2022-11-03T02:37:38.164Z,12.40
2022-11-03T02:40:15.817Z,12.50
2022-11-03T02:42:45.982Z,12.40
2022-11-03T02:45:17.501Z,12.40
2022-11-03T02:47:45.276Z,12.50
2022-11-03T02:50:13.450Z,12.40
2022-11-03T02:52:44.093Z,12.50
2022-11-03T02:55:28.992Z,12.50
2022-11-03T02:58:14.292Z,12.40
2022-11-03T03:00:49.018Z,12.40
2022-11-03T03:03:26.635Z,12.50
2022-11-03T03:06:02.296Z,12.40
2022-11-03T03:08:30.554Z,12.40
2022-11-03T03:11:00.676Z,12.40
2022-11-03T03:13:27.825Z,12.40
2022-11-03T03:16:35.771Z,12.50
2022-11-03T03:19:18.431Z,12.50
2022-11-03T03:21:50.125Z,12.50
2022-11-03T03:25:02.559Z,12.50
2022-11-03T03:27:33.879Z,12.50
2022-11-03T03:30:05.538Z,12.40
2022-11-03T03:32:37.502Z,12.40
2022-11-03T03:35:11.093Z,12.40
2022-11-03T03:37:42.244Z,12.50
2022-11-03T03:40:13.684Z,12.50
2022-11-03T03:42:42.779Z,12.50
2022-11-03T03:45:11.496Z,12.60
2022-11-03T03:47:38.320Z,12.60
2022-11-03T03:50:06.135Z,12.60
2022-11-03T03:52:34.948Z,12.60
2022-11-03T03:55:02.156Z,12.60
2022-11-03T03:57:31.643Z,12.60
2022-11-03T03:59:58.817Z,12.50
2022-11-03T04:02:25.701Z,12.50
2022-11-03T04:04:52.587Z,12.50
2022-11-03T04:07:54.644Z,12.50
2022-11-03T04:10:23.171Z,12.60
2022-11-03T04:13:09.691Z,12.50
2022-11-03T04:15:51.687Z,12.50
2022-11-03T04:18:40.837Z,12.50
2022-11-03T04:21:44.629Z,12.50
2022-11-03T04:24:11.347Z,12.50
2022-11-03T04:26:38.059Z,12.50
2022-11-03T04:29:09.854Z,12.50
2022-11-03T04:31:36.699Z,12.50
2022-11-03T04:34:10.328Z,12.50
2022-11-03T04:36:37.100Z,12.50
2022-11-03T04:39:16.214Z,12.50
2022-11-03T04:41:43.261Z,12.50
2022-11-03T04:44:17.390Z,12.50
2022-11-03T04:46:46.637Z,12.50
2022-11-03T04:49:21.745Z,12.50
2022-11-03T04:51:49.844Z,12.60
2022-11-03T04:54:19.894Z,12.60
2022-11-03T04:56:46.747Z,12.60
2022-11-03T04:59:15.999Z,12.60
2022-11-03T05:01:46.768Z,12.60
2022-11-03T05:04:16.420Z,12.60
2022-11-03T05:06:51.093Z,12.60
2022-11-03T05:09:26.884Z,12.60
2022-11-03T05:11:54.228Z,12.70
2022-11-03T05:14:25.859Z,12.70
2022-11-03T05:16:54.339Z,12.60
2022-11-03T05:19:24.368Z,12.60
2022-11-03T05:21:52.695Z,12.60
2022-11-03T05:24:21.218Z,12.60
2022-11-03T05:26:49.467Z,12.70
2022-11-03T05:29:19.753Z,12.70
2022-11-03T05:31:51.888Z,12.70
2022-11-03T05:34:30.764Z,12.70
2022-11-03T05:37:07.218Z,12.70
2022-11-03T05:39:33.906Z,12.70
2022-11-03T05:42:01.326Z,12.80
2022-11-03T05:44:39.741Z,12.80
2022-11-03T05:47:28.125Z,12.80
2022-11-03T05:49:59.406Z,12.70
2022-11-03T05:52:28.029Z,12.80
2022-11-03T05:54:58.548Z,12.80
2022-11-03T05:57:28.407Z,12.80
2022-11-03T05:59:55.806Z,12.80
2022-11-03T06:02:43.273Z,12.80
2022-11-03T06:05:20.091Z,12.90
2022-11-03T06:07:48.592Z,12.90
2022-11-03T06:10:21.558Z,12.90
2022-11-03T06:12:48.477Z,12.90
2022-11-03T06:15:48.525Z,12.90
2022-11-03T06:18:21.118Z,12.90
2022-11-03T06:20:52.866Z,12.90
2022-11-03T06:23:21.008Z,12.90
2022-11-03T06:25:48.975Z,12.90
2022-11-03T06:28:20.785Z,13.00
2022-11-03T06:30:49.041Z,12.90
2022-11-03T06:33:28.506Z,12.90
2022-11-03T06:36:02.026Z,12.90
2022-11-03T06:38:31.686Z,12.90
2022-11-03T06:40:59.212Z,12.90
2022-11-03T06:43:32.776Z,12.90
2022-11-03T06:46:01.139Z,12.90
2022-11-03T06:48:33.938Z,12.90
2022-11-03T06:51:01.690Z,12.90
2022-11-03T06:53:33.022Z,13.00
2022-11-03T06:56:00.159Z,12.90
2022-11-03T06:58:38.458Z,12.90
2022-11-03T07:01:26.802Z,12.90
2022-11-03T07:03:59.252Z,13.00
2022-11-03T07:06:32.665Z,12.90
2022-11-03T07:09:01.814Z,12.90
2022-11-03T07:11:31.894Z,12.90
2022-11-03T07:14:23.210Z,13.00
2022-11-03T07:16:58.175Z,13.00
2022-11-03T07:19:38.777Z,13.00
2022-11-03T07:22:16.735Z,13.00
2022-11-03T07:24:48.578Z,13.00
2022-11-03T07:27:27.601Z,13.00
2022-11-03T07:30:11.440Z,13.10
2022-11-03T07:32:39.589Z,13.10
2022-11-03T07:35:21.481Z,13.10
2022-11-03T07:37:51.705Z,13.10
2022-11-03T07:40:23.872Z,13.00
2022-11-03T07:42:51.447Z,13.10
2022-11-03T07:45:41.069Z,13.10
2022-11-03T07:48:44.224Z,13.20
2022-11-03T07:51:22.107Z,13.10
2022-11-03T07:53:56.627Z,13.10
2022-11-03T07:56:29.301Z,13.10
2022-11-03T07:59:01.013Z,13.10
2022-11-03T08:01:32.112Z,13.10
2022-11-03T08:04:08.220Z,13.20
2022-11-03T08:06:35.002Z,13.10
2022-11-03T08:09:01.893Z,13.10
2022-11-03T08:11:29.656Z,13.10
2022-11-03T08:13:57.165Z,13.10
2022-11-03T08:16:23.972Z,13.20
2022-11-03T08:18:50.900Z,13.20
2022-11-03T08:21:17.614Z,13.20
2022-11-03T08:23:47.431Z,13.20
2022-11-03T08:26:15.089Z,13.20
2022-11-03T08:28:41.838Z,13.20
2022-11-03T08:31:12.603Z,13.30
2022-11-03T08:33:40.321Z,13.30
2022-11-03T08:36:27.447Z,13.40
2022-11-03T08:38:54.189Z,13.40
2022-11-03T08:41:20.848Z,13.40
2022-11-03T08:43:47.612Z,13.40
2022-11-03T08:46:17.598Z,13.50
2022-11-03T08:48:45.317Z,13.40
2022-11-03T08:51:13.854Z,13.40
2022-11-03T08:53:42.763Z,13.50
2022-11-03T08:56:12.749Z,13.40
2022-11-03T08:58:45.042Z,13.50
2022-11-03T09:01:12.462Z,13.40
2022-11-03T09:03:40.064Z,13.50
2022-11-03T09:06:08.068Z,13.60
2022-11-03T09:11:21.597Z,13.60
2022-11-03T09:13:48.297Z,13.60
2022-11-03T09:16:15.041Z,13.70
2022-11-03T09:18:41.782Z,13.80
2022-11-03T09:21:08.916Z,13.90
2022-11-03T09:23:35.850Z,13.90
2022-11-03T09:26:02.607Z,13.90
2022-11-03T09:28:29.398Z,13.90
2022-11-03T09:30:56.073Z,14.00
2022-11-03T09:33:22.851Z,14.00
2022-11-03T09:35:49.588Z,14.00
2022-11-03T09:38:16.318Z,14.10
2022-11-03T09:40:43.173Z,14.00
2022-11-03T09:43:10.870Z,14.10
2022-11-03T09:45:39.267Z,14.10
2022-11-03T09:48:13.389Z,14.10
2022-11-03T09:50:40.816Z,14.20
2022-11-03T09:53:11.646Z,14.10
2022-11-03T09:55:39.726Z,14.20
2022-11-03T09:58:14.059Z,14.20
2022-11-03T10:00:41.472Z,14.10
2022-11-03T10:03:17.059Z,14.20
2022-11-03T10:05:47.898Z,14.30
2022-11-03T10:08:25.537Z,14.20
2022-11-03T10:10:52.956Z,14.30
2022-11-03T10:13:31.474Z,14.20
2022-11-03T10:16:00.669Z,14.20
2022-11-03T10:18:28.620Z,14.30
2022-11-03T10:20:55.562Z,14.30
2022-11-03T10:23:22.322Z,14.30
2022-11-03T10:25:49.086Z,14.30
2022-11-03T10:28:23.025Z,14.30
2022-11-03T10:31:13.266Z,14.30
2022-11-03T10:33:53.606Z,14.40
2022-11-03T10:36:20.325Z,14.30
2022-11-03T10:38:48.125Z,14.40
2022-11-03T10:41:23.718Z,14.40
2022-11-03T10:44:00.556Z,14.50
2022-11-03T10:49:16.472Z,14.50
2022-11-03T10:51:47.577Z,14.50
2022-11-03T10:54:16.923Z,14.50
2022-11-03T10:56:45.191Z,14.60
2022-11-03T10:59:19.098Z,14.60
2022-11-03T11:01:46.426Z,14.60
2022-11-03T11:04:20.647Z,14.70
2022-11-03T11:06:48.087Z,14.70
2022-11-03T11:09:21.766Z,14.80
2022-11-03T11:12:06.651Z,14.80
2022-11-03T11:14:36.810Z,14.90
2022-11-03T11:17:04.914Z,15.00
2022-11-03T11:20:10.332Z,15.00
2022-11-03T11:22:37.240Z,15.00
2022-11-03T11:25:04.324Z,15.00
2022-11-03T11:27:37.092Z,15.00
2022-11-03T11:30:07.422Z,15.00
2022-11-03T11:32:37.290Z,15.10
2022-11-03T11:35:04.128Z,15.10
2022-11-03T11:37:30.836Z,15.10
2022-11-03T11:39:57.623Z,15.20
2022-11-03T11:45:03.478Z,15.40
2022-11-03T11:47:49.256Z,15.50
2022-11-03T11:50:17.766Z,15.70
2022-11-03T11:53:02.930Z,15.60
2022-11-03T11:55:32.547Z,15.50
2022-11-03T11:58:02.075Z,15.50
2022-11-03T12:00:31.913Z,15.50
2022-11-03T12:03:01.218Z,15.60
2022-11-03T12:05:35.954Z,15.70
2022-11-03T12:08:16.453Z,15.70
2022-11-03T12:10:53.489Z,15.60
2022-11-03T12:13:47.663Z,15.70
2022-11-03T12:16:33.950Z,16.00
2022-11-03T12:19:35.712Z,16.20
2022-11-03T12:22:23.464Z,15.90
2022-11-03T12:25:01.239Z,16.00
2022-11-03T12:27:27.980Z,15.90
2022-11-03T12:30:00.084Z,15.80
2022-11-03T12:32:34.645Z,15.80
2022-11-03T12:35:03.187Z,15.90
2022-11-03T12:37:29.916Z,15.90
2022-11-03T12:39:56.774Z,16.00
2022-11-03T12:42:25.064Z,16.10
2022-11-03T12:44:52.645Z,16.10
2022-11-03T12:47:20.422Z,16.10
2022-11-03T12:49:47.218Z,16.10
2022-11-03T12:52:14.009Z,16.40
2022-11-03T12:54:42.220Z,16.90
2022-11-03T12:57:09.238Z,17.10
2022-11-03T12:59:36.048Z,16.70
2022-11-03T13:02:02.995Z,16.50
2022-11-03T13:04:29.767Z,16.30
2022-11-03T13:06:56.703Z,16.20
2022-11-03T13:09:23.415Z,16.20
2022-11-03T13:12:08.767Z,16.10
2022-11-03T13:14:35.531Z,15.90
2022-11-03T13:17:03.750Z,15.90
2022-11-03T13:19:30.742Z,15.90
2022-11-03T13:21:57.546Z,16.00
2022-11-03T13:24:24.462Z,15.90
2022-11-03T13:26:51.269Z,15.90
2022-11-03T13:29:18.149Z,15.90
2022-11-03T13:31:44.965Z,15.80
2022-11-03T13:34:11.742Z,15.90
2022-11-03T13:36:38.531Z,15.80
2022-11-03T13:39:05.237Z,15.80
2022-11-03T13:41:31.926Z,15.70
2022-11-03T13:43:58.681Z,15.70
2022-11-03T13:46:25.397Z,15.60
2022-11-03T13:49:43.897Z,15.60
2022-11-03T13:51:39.046Z,15.60
2022-11-03T13:59:39.508Z,15.50
2022-11-03T14:04:53.479Z,15.50
2022-11-03T14:07:20.362Z,15.40
2022-11-03T14:09:47.174Z,15.40
2022-11-03T14:12:32.592Z,15.40
2022-11-03T14:15:00.231Z,15.40
2022-11-03T14:17:27.108Z,15.40
2022-11-03T14:19:57.889Z,15.30
2022-11-03T14:22:30.557Z,15.20
2022-11-03T14:24:57.585Z,15.20
2022-11-03T14:27:24.772Z,15.20
2022-11-03T14:29:51.629Z,15.10
2022-11-03T14:32:19.050Z,15.10
2022-11-03T14:34:46.154Z,14.90
2022-11-03T14:37:13.433Z,14.90
2022-11-03T14:39:40.900Z,14.80
2022-11-03T14:42:15.076Z,14.80
2022-11-03T14:44:43.604Z,14.70
2022-11-03T14:47:15.256Z,14.60
2022-11-03T14:49:42.053Z,14.40
2022-11-03T14:52:09.027Z,14.30
2022-11-03T14:54:36.478Z,14.30
2022-11-03T14:57:04.598Z,14.30
2022-11-03T14:59:32.193Z,14.20
2022-11-03T15:02:00.098Z,14.30
2022-11-03T15:04:27.322Z,14.30
2022-11-03T15:06:54.535Z,14.30
2022-11-03T15:09:21.495Z,14.30
2022-11-03T15:11:48.389Z,14.30
2022-11-03T15:14:15.136Z,14.10
2022-11-03T15:16:41.946Z,14.10
2022-11-03T15:19:08.977Z,14.00
2022-11-03T15:21:35.987Z,14.00
2022-11-03T15:26:49.716Z,14.10
2022-11-03T15:29:16.488Z,14.10
2022-11-03T15:31:47.911Z,14.20
2022-11-03T15:34:15.896Z,14.00
2022-11-03T15:36:42.818Z,14.00
2022-11-03T15:39:09.696Z,14.10
2022-11-03T15:41:36.562Z,14.00
2022-11-03T15:44:03.454Z,14.00
2022-11-03T15:46:30.398Z,14.00
2022-11-03T15:48:57.680Z,14.10
2022-11-03T15:51:24.936Z,14.10
2022-11-03T15:53:57.795Z,14.00
2022-11-03T15:56:25.864Z,14.00
2022-11-03T15:58:52.598Z,14.00
2022-11-03T16:01:19.480Z,14.00
2022-11-03T16:03:46.308Z,13.90
2022-11-03T16:06:13.054Z,13.90
2022-11-03T16:08:39.972Z,14.00
2022-11-03T16:11:06.753Z,14.00
2022-11-03T16:13:33.544Z,14.00
2022-11-03T16:16:00.365Z,14.00
2022-11-03T16:18:27.127Z,13.90
2022-11-03T16:20:53.899Z,14.00
2022-11-03T16:23:20.649Z,14.00
2022-11-03T16:25:47.519Z,14.00
2022-11-03T16:28:14.739Z,13.90
2022-11-03T16:30:41.499Z,13.80
2022-11-03T16:33:08.792Z,13.80
2022-11-03T16:35:35.519Z,13.70
2022-11-03T16:38:02.228Z,13.60
2022-11-03T16:40:28.980Z,13.60
2022-11-03T16:42:55.663Z,13.60
2022-11-03T16:45:25.915Z,13.50
2022-11-03T16:47:53.251Z,13.40
2022-11-03T16:50:20.477Z,13.30
2022-11-03T16:52:49.229Z,13.20
2022-11-03T16:55:17.466Z,13.10
2022-11-03T16:57:44.634Z,13.10
2022-11-03T17:00:17.381Z,13.10
2022-11-03T17:02:45.637Z,13.10
2022-11-03T17:05:13.599Z,13.10
2022-11-03T17:07:40.306Z,13.00
2022-11-03T17:10:07.972Z,13.00
2022-11-03T17:12:34.743Z,12.90
2022-11-03T17:15:01.450Z,12.80
2022-11-03T17:17:28.252Z,12.90
2022-11-03T17:19:55.079Z,13.00
2022-11-03T17:22:22.333Z,12.90
2022-11-03T17:24:49.648Z,12.80
2022-11-03T17:27:21.806Z,12.80
2022-11-03T17:29:52.041Z,12.90
2022-11-03T17:32:29.470Z,12.80
2022-11-03T17:34:57.755Z,12.80
2022-11-03T17:37:26.162Z,12.80
2022-11-03T17:39:53.061Z,12.80
2022-11-03T17:42:25.133Z,12.70
2022-11-03T17:44:55.460Z,12.50
2022-11-03T17:47:23.175Z,12.50
2022-11-03T17:49:49.953Z,12.60
2022-11-03T17:52:29.004Z,12.50
2022-11-03T17:55:00.043Z,12.50
2022-11-03T17:57:27.398Z,12.50
2022-11-03T17:59:57.231Z,12.50
2022-11-03T18:02:26.501Z,12.60
2022-11-03T18:05:14.160Z,12.50
2022-11-03T18:07:43.919Z,12.50
2022-11-03T18:10:10.657Z,12.50
2022-11-03T18:12:58.523Z,12.40
2022-11-03T18:15:26.987Z,12.50
2022-11-03T18:17:53.845Z,12.40
2022-11-03T18:20:24.116Z,12.40
2022-11-03T18:22:50.851Z,12.30
2022-11-03T18:25:21.049Z,12.30
2022-11-03T18:27:48.298Z,12.30
2022-11-03T18:30:16.837Z,12.30
2022-11-03T18:32:48.941Z,12.30
2022-11-03T18:35:22.591Z,12.30
2022-11-03T18:37:50.282Z,12.30
2022-11-03T18:40:17.401Z,12.40
2022-11-03T18:42:44.198Z,12.30
2022-11-03T18:45:13.141Z,12.40
2022-11-03T18:47:40.205Z,12.20
2022-11-03T18:50:10.158Z,12.30
2022-11-03T18:52:41.118Z,12.20
2022-11-03T18:55:12.639Z,12.30
2022-11-03T18:57:40.278Z,12.20
2022-11-03T19:00:16.783Z,12.20
2022-11-03T19:02:43.543Z,12.20
2022-11-03T19:05:13.682Z,12.10
2022-11-03T19:07:42.720Z,12.20
2022-11-03T19:10:13.436Z,12.10
2022-11-03T19:12:44.305Z,12.20
2022-11-03T19:15:23.087Z,12.20
2022-11-03T19:17:52.386Z,12.20
2022-11-03T19:20:19.247Z,12.10
2022-11-03T19:22:46.671Z,12.10
2022-11-03T19:25:14.914Z,12.20
2022-11-03T19:27:45.282Z,12.10
2022-11-03T19:30:15.963Z,12.10
2022-11-03T19:32:48.596Z,12.00
2022-11-03T19:35:25.898Z,12.10
2022-11-03T19:38:01.460Z,12.10
2022-11-03T19:40:28.541Z,12.00
2022-11-03T19:42:55.780Z,12.00
2022-11-03T19:45:24.139Z,12.00
2022-11-03T19:48:22.547Z,12.00
2022-11-03T19:50:44.750Z,12.00
2022-11-03T19:53:19.085Z,12.00
2022-11-03T19:55:46.221Z,12.00
2022-11-03T19:58:18.116Z,12.00
2022-11-03T20:00:45.852Z,12.00
2022-11-03T20:03:13.078Z,12.00
2022-11-03T20:05:42.882Z,12.00
2022-11-03T20:08:19.098Z,12.10
2022-11-03T20:10:48.022Z,12.00
2022-11-03T20:13:28.856Z,12.00
2022-11-03T20:16:00.588Z,12.00
2022-11-03T20:18:28.231Z,12.00
2022-11-03T20:20:55.206Z,12.00
2022-11-03T20:23:33.086Z,12.00
2022-11-03T20:26:01.027Z,12.10
2022-11-03T20:28:30.611Z,12.00
2022-11-03T20:30:57.823Z,12.10
2022-11-03T20:33:25.373Z,12.00
2022-11-03T20:35:53.746Z,12.00
2022-11-03T20:38:21.838Z,12.00
2022-11-03T20:40:51.283Z,11.90
2022-11-03T20:43:38.166Z,11.90
2022-11-03T20:46:25.359Z,11.90
2022-11-03T20:48:52.915Z,11.90
2022-11-03T20:51:23.734Z,11.90
2022-11-03T20:53:51.523Z,11.90
2022-11-03T20:56:24.595Z,11.90
2022-11-03T20:58:51.830Z,11.90
2022-11-03T21:01:23.937Z,11.80
2022-11-03T21:03:59.169Z,11.80
2022-11-03T21:06:28.403Z,11.80
2022-11-03T21:08:55.378Z,11.80
2022-11-03T21:11:33.916Z,11.80
2022-11-03T21:14:07.922Z,11.90
2022-11-03T21:16:53.132Z,11.80
2022-11-03T21:20:00.902Z,11.80
2022-11-03T21:22:57.175Z,11.80
2022-11-03T21:25:24.771Z,11.80
2022-11-03T21:27:53.771Z,11.80
2022-11-03T21:30:21.345Z,11.80
2022-11-03T21:32:48.159Z,11.70
2022-11-03T21:35:20.310Z,11.70
2022-11-03T21:37:47.360Z,11.60
2022-11-03T21:40:14.431Z,11.70
2022-11-03T21:43:00.297Z,11.70
2022-11-03T21:45:27.399Z,11.70
2022-11-03T21:48:13.858Z,11.70
2022-11-03T21:50:41.732Z,11.70
2022-11-03T21:53:08.947Z,11.60
2022-11-03T21:55:36.471Z,11.50
2022-11-03T21:58:04.307Z,11.30
2022-11-03T22:00:32.067Z,11.20
2022-11-03T22:02:59.456Z,11.10
2022-11-03T22:05:26.600Z,11.20
2022-11-03T22:07:53.542Z,11.20
2022-11-03T22:10:20.616Z,11.30
2022-11-03T22:12:47.395Z,11.30
2022-11-03T22:15:32.624Z,11.40
2022-11-03T22:18:07.073Z,11.40
2022-11-03T22:20:54.453Z,11.40
2022-11-03T22:23:39.929Z,11.50
2022-11-03T22:26:32.554Z,11.50
2022-11-03T22:29:18.053Z,11.50
2022-11-03T22:31:45.133Z,11.40
2022-11-03T22:34:30.796Z,11.40
2022-11-03T22:36:57.568Z,11.40
2022-11-03T22:39:42.909Z,11.40
2022-11-03T22:42:30.778Z,11.40
2022-11-03T22:45:16.093Z,11.40
2022-11-03T22:47:42.922Z,11.40
2022-11-03T22:50:10.039Z,11.30
2022-11-03T22:52:36.813Z,11.30
2022-11-03T22:55:03.972Z,11.20
2022-11-03T22:57:30.739Z,11.20
2022-11-03T22:59:57.459Z,11.20
2022-11-03T23:02:24.364Z,11.20
2022-11-03T23:04:51.139Z,11.20
2022-11-03T23:07:17.898Z,11.10
2022-11-03T23:09:45.268Z,11.20
2022-11-03T23:12:13.152Z,11.20
2022-11-03T23:14:58.691Z,11.10
2022-11-03T23:17:45.417Z,11.10
2022-11-03T23:20:31.017Z,11.10
2022-11-03T23:22:57.806Z,11.10
2022-11-03T23:25:24.550Z,11.10
2022-11-03T23:27:52.760Z,11.10
2022-11-03T23:30:19.698Z,11.10
2022-11-03T23:32:46.428Z,11.10
2022-11-03T23:35:14.550Z,11.10
2022-11-03T23:37:41.353Z,11.10
2022-11-03T23:40:08.699Z,11.00
2022-11-03T23:42:35.446Z,11.00
2022-11-03T23:45:21.034Z,11.00
2022-11-03T23:48:07.171Z,11.00
2022-11-03T23:50:34.093Z,10.90
2022-11-03T23:53:00.839Z,10.80
2022-11-03T23:55:47.475Z,10.70
2022-11-03T23:58:20.428Z,10.70
